Aérodrome :
LOGIN :

S'inscrire | Disclaimer

   EN    FR    IT 

 










Légende :    VFR   VFR Marginal   IFR   IFR Intensif   IFR Très Intensif
Visi : 
Plafond : 
>= 8 km
>= 3000ft
5 à 8 km
1000 à 3000 ft
1500m à 5 km
500 à 1000 ft
800 à 1500m
200 à 500 ft
< 800m
< 200 ft
Symboles :   Orages  Brouillard  Fortes neiges  Fortes précipitations  Vent > 20 kt
SIGMETs :   Divers  Orages  Givrage  Turbulence  Onde Orograph.  Cendres Volcan.






- Altitude de l'aérodrome : 3006 ft
- Code IATA : LEN


LELN - Leon

DERNIER METAR :
  • 170000Z AUTO 28003KT 230V320 9999 FEW050 02/01 Q1014

METARs EXPIRÉS :
  • 162330Z AUTO 27004KT 250V310 9999 BKN055 02/01 Q1013
  • 162300Z AUTO 26006KT 9999 BKN056 02/01 Q1014
  • 162230Z AUTO 26009KT 230V290 9999 FEW008 BKN050 02/01 Q1014
  • 162200Z AUTO 26011KT 9999 SCT007 OVC050 03/02 Q1014
  • 162130Z AUTO 25010KT 220V290 9999 SCT008 OVC057 03/02 Q1014

TAF TAF LELN
Valide du 16 à 18h jusqu'au 17 à 03h UTC


161700Z 1618/1703 27008KT 9999 FEW045
PROB40
TEMPO 1618/1703 3000 BR BKN004
PROB30
TEMPO 1618/1703 0100 RA FG VV001



MET'MAP, la Météo Aéronautique d'un coup d'oeil ! - Copyright ORBIFLY Décembre 2007 - Disclaimer

ORBIFLY MET'MAP TEAM :

Programmation & Développement : Alexandra Zaïnal
Conception & Développement : Baudouin d'Aumeries
Co-Programmation & Développement : Marc-Olivier Méhu
Soutien technique & logistique : Manuel Goepfert

Contact : metmap@orbifly.com




SOURCES & CREDITS :

   NOAA